createdAt,value
2022-08-04T00:02:09.877Z,2.40
2022-08-04T00:05:06.856Z,2.00
2022-08-04T00:08:13.187Z,2.10
2022-08-04T00:11:22.005Z,2.20
2022-08-04T00:14:32.619Z,2.20
2022-08-04T00:17:21.579Z,2.10
2022-08-04T00:20:26.715Z,2.30
2022-08-04T00:24:11.489Z,2.20
2022-08-04T00:27:22.569Z,2.20
2022-08-04T00:30:58.196Z,2.00
2022-08-04T00:34:31.843Z,2.50
2022-08-04T00:37:59.978Z,2.00
2022-08-04T00:41:03.390Z,2.30
2022-08-04T00:44:16.041Z,2.40
2022-08-04T00:47:15.236Z,2.30
2022-08-04T00:50:30.451Z,2.20
2022-08-04T00:54:00.104Z,2.20
2022-08-04T00:57:33.826Z,1.90
2022-08-04T01:00:49.498Z,2.00
2022-08-04T01:04:19.475Z,2.20
2022-08-04T01:07:30.652Z,1.90
2022-08-04T01:10:39.064Z,2.40
2022-08-04T01:14:06.898Z,2.20
2022-08-04T01:17:21.708Z,1.90
2022-08-04T01:21:09.803Z,2.00
2022-08-04T01:24:38.653Z,2.10
2022-08-04T01:28:01.580Z,2.30
2022-08-04T01:31:42.320Z,2.10
2022-08-04T01:35:00.068Z,2.20
2022-08-04T01:38:31.535Z,2.20
2022-08-04T01:41:59.077Z,2.50
2022-08-04T01:45:23.399Z,2.50
2022-08-04T01:48:51.018Z,2.30
2022-08-04T01:52:02.459Z,2.10
2022-08-04T01:55:54.264Z,2.10
2022-08-04T01:59:23.906Z,2.20
2022-08-04T02:02:59.393Z,2.50
2022-08-04T02:06:09.317Z,2.40
2022-08-04T02:09:15.277Z,2.20
2022-08-04T02:12:27.302Z,2.20
2022-08-04T02:15:49.759Z,2.40
2022-08-04T02:19:22.297Z,2.70
2022-08-04T02:22:08.168Z,2.70
2022-08-04T02:24:46.323Z,2.60
2022-08-04T02:27:16.678Z,2.10
2022-08-04T02:29:53.728Z,2.60
2022-08-04T02:32:28.471Z,2.40
2022-08-04T02:35:13.700Z,2.30
2022-08-04T02:38:01.258Z,2.40
2022-08-04T02:42:59.222Z,2.40
2022-08-04T02:45:29.039Z,3.00
2022-08-04T02:48:29.085Z,2.10
2022-08-04T02:50:52.075Z,2.10
2022-08-04T02:53:23.147Z,2.40
2022-08-04T02:55:53.374Z,2.50
2022-08-04T02:58:31.669Z,2.40
2022-08-04T03:00:59.936Z,2.40
2022-08-04T03:03:41.146Z,2.40
2022-08-04T03:06:46.241Z,2.20
2022-08-04T03:09:40.560Z,1.80
2022-08-04T03:12:40.773Z,2.20
2022-08-04T03:15:41.067Z,1.90
2022-08-04T03:18:38.115Z,2.30
2022-08-04T03:21:35.654Z,2.30
2022-08-04T03:27:10.190Z,2.00
2022-08-04T03:30:00.999Z,2.00
2022-08-04T03:33:03.932Z,2.60
2022-08-04T03:36:08.786Z,2.40
2022-08-04T03:39:12.479Z,2.10
2022-08-04T03:42:16.008Z,2.30
2022-08-04T03:45:23.195Z,2.60
2022-08-04T03:48:13.691Z,2.20
2022-08-04T03:51:36.096Z,2.20
2022-08-04T03:54:24.378Z,2.60
2022-08-04T03:57:48.640Z,2.30
2022-08-04T04:01:16.841Z,2.30
2022-08-04T04:04:44.135Z,2.80
2022-08-04T04:07:35.722Z,2.40
2022-08-04T04:11:03.317Z,2.20
2022-08-04T04:14:16.329Z,2.20
2022-08-04T04:17:35.659Z,2.10
2022-08-04T04:21:17.636Z,2.40
2022-08-04T04:24:48.196Z,2.00
2022-08-04T04:27:30.856Z,2.20
2022-08-04T04:30:07.393Z,2.20
2022-08-04T04:35:27.591Z,2.80
2022-08-04T04:38:21.653Z,2.40
2022-08-04T04:41:22.474Z,3.10
2022-08-04T04:44:16.574Z,3.30
2022-08-04T04:47:16.384Z,2.80
2022-08-04T04:50:16.914Z,2.70
2022-08-04T04:52:51.229Z,2.80
2022-08-04T04:55:47.957Z,2.50
2022-08-04T04:58:22.172Z,3.40
2022-08-04T05:01:18.219Z,2.80
2022-08-04T05:04:08.074Z,2.60
2022-08-04T05:07:09.925Z,2.90
2022-08-04T05:09:59.656Z,3.10
2022-08-04T05:14:37.122Z,2.40
2022-08-04T05:15:49.703Z,3.10
2022-08-04T05:18:23.208Z,3.30
2022-08-04T05:32:27.515Z,2.60
2022-08-04T05:35:04.040Z,2.40
2022-08-04T05:37:36.030Z,2.40
2022-08-04T05:40:07.278Z,2.10
2022-08-04T05:42:38.727Z,2.60
2022-08-04T05:45:10.545Z,2.90
2022-08-04T05:47:44.529Z,2.60
2022-08-04T05:50:13.705Z,2.60
2022-08-04T05:52:43.090Z,3.20
2022-08-04T05:55:12.690Z,3.10
2022-08-04T05:58:05.580Z,3.10
2022-08-04T06:00:41.492Z,3.00
2022-08-04T06:03:12.558Z,2.90
2022-08-04T06:05:43.920Z,3.90
2022-08-04T06:08:13.735Z,3.60
2022-08-04T06:10:44.859Z,3.50
2022-08-04T06:13:47.678Z,3.60
2022-08-04T06:16:17.968Z,3.20
2022-08-04T06:20:00.068Z,3.20
2022-08-04T06:21:58.731Z,3.30
2022-08-04T06:24:30.433Z,3.40
2022-08-04T06:26:59.427Z,3.60
2022-08-04T06:29:51.292Z,3.30
2022-08-04T06:32:33.630Z,2.70
2022-08-04T06:37:43.489Z,2.70
2022-08-04T06:40:40.591Z,3.10
2022-08-04T06:43:16.291Z,3.20
2022-08-04T06:45:51.587Z,2.90
2022-08-04T06:48:55.154Z,3.20
2022-08-04T06:51:42.440Z,3.20
2022-08-04T06:54:23.014Z,3.00
2022-08-04T06:56:58.388Z,2.80
2022-08-04T06:59:28.401Z,2.80
2022-08-04T07:01:59.089Z,3.00
2022-08-04T07:04:28.046Z,3.30
2022-08-04T07:07:00.800Z,3.40
2022-08-04T07:09:31.101Z,3.10
2022-08-04T07:12:01.681Z,2.60
2022-08-04T07:14:40.298Z,3.20
2022-08-04T07:17:14.159Z,4.20
2022-08-04T07:19:53.990Z,2.90
2022-08-04T07:22:43.593Z,3.00
2022-08-04T07:25:58.661Z,3.00
2022-08-04T07:34:17.248Z,3.80
2022-08-04T07:38:16.165Z,2.70
2022-08-04T07:40:44.350Z,2.70
2022-08-04T07:43:32.200Z,3.20
2022-08-04T08:03:43.030Z,2.60
2022-08-04T08:07:00.670Z,2.90
2022-08-04T08:09:41.756Z,2.70
2022-08-04T08:12:35.823Z,2.20
2022-08-04T08:15:13.329Z,2.20
2022-08-04T08:18:18.319Z,2.10
2022-08-04T08:22:04.323Z,2.30
2022-08-04T08:34:05.687Z,1.90
2022-08-04T08:37:02.728Z,1.90
2022-08-04T08:39:41.679Z,2.10
2022-08-04T08:42:47.225Z,2.00
2022-08-04T08:45:57.953Z,1.80
2022-08-04T08:49:10.728Z,2.10
2022-08-04T08:53:00.731Z,1.70
2022-08-04T08:56:03.399Z,2.00
2022-08-04T08:59:45.646Z,1.70
2022-08-04T09:03:15.629Z,1.80
2022-08-04T09:06:01.689Z,2.60
2022-08-04T09:08:57.905Z,1.80
2022-08-04T09:11:37.638Z,1.60
2022-08-04T09:14:14.130Z,1.80
2022-08-04T09:16:52.535Z,1.80
2022-08-04T09:19:38.955Z,2.00
2022-08-04T09:22:29.530Z,1.70
2022-08-04T09:25:07.374Z,1.80
2022-08-04T09:27:49.671Z,1.50
2022-08-04T09:30:23.670Z,1.80
2022-08-04T09:33:07.485Z,1.80
2022-08-04T09:35:52.561Z,1.60
2022-08-04T09:38:33.002Z,2.10
2022-08-04T09:41:48.537Z,3.90
2022-08-04T09:48:04.337Z,1.60
2022-08-04T09:50:50.625Z,1.40
2022-08-04T09:54:30.762Z,1.80
2022-08-04T09:57:54.103Z,1.70
2022-08-04T10:00:49.635Z,2.30
2022-08-04T10:04:24.230Z,1.80
2022-08-04T10:08:27.244Z,1.90
2022-08-04T10:12:38.963Z,1.50
2022-08-04T10:15:15.034Z,1.70
2022-08-04T10:21:06.802Z,2.10
2022-08-04T10:24:09.571Z,2.00
2022-08-04T10:26:51.299Z,1.70
2022-08-04T10:29:30.694Z,1.40
2022-08-04T10:32:09.519Z,1.90
2022-08-04T10:34:44.470Z,1.70
2022-08-04T10:38:00.258Z,1.70
2022-08-04T10:40:40.900Z,1.40
2022-08-04T10:43:40.768Z,1.90
2022-08-04T10:46:42.515Z,2.30
2022-08-04T10:49:21.805Z,1.50
2022-08-04T10:51:59.953Z,2.00
2022-08-04T10:54:48.348Z,1.70
2022-08-04T10:57:43.410Z,2.10
2022-08-04T11:00:27.472Z,1.50
2022-08-04T11:03:31.948Z,2.30
2022-08-04T11:06:07.150Z,1.60
2022-08-04T11:08:41.848Z,1.60
2022-08-04T11:11:21.132Z,1.80
2022-08-04T11:14:02.741Z,1.40
2022-08-04T11:16:42.204Z,1.90
2022-08-04T11:19:45.399Z,2.00
2022-08-04T11:22:27.257Z,2.30
2022-08-04T11:25:14.429Z,2.00
2022-08-04T11:28:02.839Z,1.80
2022-08-04T11:30:37.962Z,2.10
2022-08-04T11:33:22.154Z,1.90
2022-08-04T11:36:13.269Z,2.00
2022-08-04T11:38:52.046Z,2.00
2022-08-04T11:41:32.768Z,1.80
2022-08-04T11:45:05.566Z,3.00
2022-08-04T11:47:57.866Z,1.80
2022-08-04T11:50:50.372Z,1.90
2022-08-04T11:56:11.134Z,1.60
2022-08-04T11:58:41.475Z,2.00
2022-08-04T12:01:41.295Z,2.20
2022-08-04T12:04:27.312Z,2.20
2022-08-04T12:07:31.718Z,2.10
2022-08-04T12:10:41.826Z,1.60
2022-08-04T12:13:52.386Z,1.80
2022-08-04T12:17:16.320Z,1.70
2022-08-04T12:20:41.639Z,2.00
2022-08-04T12:27:06.621Z,1.60
2022-08-04T12:30:57.246Z,1.80
2022-08-04T12:34:03.261Z,2.00
2022-08-04T12:36:28.238Z,2.10
2022-08-04T12:39:07.181Z,1.90
2022-08-04T12:41:46.130Z,1.80
2022-08-04T12:44:53.305Z,1.60
2022-08-04T12:47:29.058Z,1.70
2022-08-04T12:50:37.931Z,1.70
2022-08-04T12:53:32.120Z,1.70
2022-08-04T12:56:45.333Z,2.00
2022-08-04T13:00:04.941Z,1.90
2022-08-04T13:03:27.308Z,1.70
2022-08-04T13:06:45.314Z,1.60
2022-08-04T13:09:53.741Z,2.40
2022-08-04T13:13:45.566Z,2.00
2022-08-04T13:17:04.527Z,1.60
2022-08-04T13:20:10.154Z,1.60
2022-08-04T13:23:12.379Z,1.50
2022-08-04T13:26:43.211Z,1.60
2022-08-04T13:33:31.533Z,1.60
2022-08-04T13:36:25.500Z,1.40
2022-08-04T13:39:39.650Z,1.40
2022-08-04T13:42:46.157Z,2.00
2022-08-04T13:45:35.216Z,1.60
2022-08-04T13:48:15.688Z,1.80
2022-08-04T13:51:12.360Z,1.60
2022-08-04T13:54:07.566Z,1.70
2022-08-04T13:56:49.879Z,1.60
2022-08-04T13:59:36.853Z,1.70
2022-08-04T14:03:23.244Z,1.50
2022-08-04T14:05:35.397Z,1.40
2022-08-04T14:08:35.827Z,1.50
2022-08-04T14:12:06.631Z,1.00
2022-08-04T14:14:23.450Z,1.40
2022-08-04T14:17:03.643Z,1.30
2022-08-04T14:19:58.763Z,1.80
2022-08-04T14:22:34.349Z,1.70
2022-08-04T14:25:19.039Z,1.60
2022-08-04T14:28:03.857Z,1.70
2022-08-04T14:30:42.740Z,1.70
2022-08-04T14:34:01.838Z,2.70
2022-08-04T14:36:05.445Z,1.70
2022-08-04T14:38:54.456Z,1.60
2022-08-04T14:41:43.255Z,1.70
2022-08-04T14:44:21.453Z,1.50
2022-08-04T14:46:57.767Z,1.70
2022-08-04T14:49:26.906Z,1.50
2022-08-04T14:51:59.178Z,1.70
2022-08-04T14:54:35.808Z,1.50
2022-08-04T14:57:08.292Z,1.70
2022-08-04T15:00:00.858Z,2.00
2022-08-04T15:02:33.355Z,1.30
2022-08-04T15:05:55.223Z,1.60
2022-08-04T15:07:54.698Z,1.70
2022-08-04T15:10:26.659Z,1.70
2022-08-04T15:12:56.677Z,1.50
2022-08-04T15:16:08.491Z,1.40
2022-08-04T15:18:38.790Z,1.30
2022-08-04T15:21:08.287Z,2.10
2022-08-04T15:23:52.588Z,1.50
2022-08-04T15:26:37.146Z,1.40
2022-08-04T15:29:27.340Z,1.50
2022-08-04T15:32:04.321Z,1.70
2022-08-04T15:34:49.465Z,1.70
2022-08-04T15:37:29.391Z,1.50
2022-08-04T15:40:09.053Z,1.50
2022-08-04T15:42:56.917Z,1.60
2022-08-04T15:46:32.885Z,1.70
2022-08-04T15:48:26.810Z,1.30
2022-08-04T15:51:05.546Z,1.50
2022-08-04T15:54:16.981Z,1.30
2022-08-04T15:57:02.360Z,1.30
2022-08-04T16:00:12.836Z,1.50
2022-08-04T16:02:43.955Z,1.30
2022-08-04T16:05:35.596Z,1.60
2022-08-04T16:08:14.857Z,1.40
2022-08-04T16:10:45.428Z,1.80
2022-08-04T16:13:17.091Z,1.30
2022-08-04T16:15:50.888Z,2.40
2022-08-04T16:18:38.931Z,1.50
2022-08-04T16:21:18.379Z,1.40
2022-08-04T16:24:09.940Z,1.20
2022-08-04T16:26:56.466Z,1.30
2022-08-04T16:29:32.000Z,1.20
2022-08-04T16:32:12.025Z,1.50
2022-08-04T16:35:04.288Z,1.50
2022-08-04T16:37:38.038Z,1.50
2022-08-04T16:40:39.593Z,1.10
2022-08-04T16:43:17.658Z,1.30
2022-08-04T16:45:50.343Z,1.10
2022-08-04T16:48:26.999Z,1.10
2022-08-04T16:51:04.546Z,1.40
2022-08-04T16:54:03.028Z,1.10
2022-08-04T16:56:33.000Z,1.10
2022-08-04T16:59:11.439Z,1.20
2022-08-04T17:01:51.169Z,1.60
2022-08-04T17:04:30.498Z,1.10
2022-08-04T17:07:16.455Z,1.40
2022-08-04T17:09:52.115Z,1.30
2022-08-04T17:12:20.141Z,1.10
2022-08-04T17:14:48.809Z,1.20
2022-08-04T17:17:23.076Z,1.10
2022-08-04T17:19:53.713Z,1.20
2022-08-04T17:22:22.049Z,1.10
2022-08-04T17:24:51.481Z,1.40
2022-08-04T17:28:20.220Z,1.20
2022-08-04T17:30:26.551Z,1.30
2022-08-04T17:32:54.404Z,1.30
2022-08-04T17:35:23.068Z,1.30
2022-08-04T17:37:53.682Z,1.20
2022-08-04T17:40:25.691Z,1.20
2022-08-04T17:44:03.874Z,1.00
2022-08-04T17:46:28.420Z,1.60
2022-08-04T17:49:00.971Z,1.30
2022-08-04T17:51:53.426Z,1.20
2022-08-04T17:54:37.312Z,1.20
2022-08-04T17:57:19.446Z,1.20
2022-08-04T17:59:58.459Z,1.10
2022-08-04T18:02:32.685Z,1.00
2022-08-04T18:05:07.972Z,1.10
2022-08-04T18:08:46.138Z,1.10
2022-08-04T18:10:52.353Z,1.30
2022-08-04T18:13:26.462Z,1.30
2022-08-04T18:16:04.414Z,1.40
2022-08-04T18:18:35.414Z,1.30
2022-08-04T18:21:06.675Z,1.20
2022-08-04T18:23:34.662Z,1.40
2022-08-04T18:26:23.706Z,1.80
2022-08-04T18:28:52.265Z,1.90
2022-08-04T18:31:20.308Z,1.60
2022-08-04T18:33:59.063Z,1.50
2022-08-04T18:36:34.461Z,1.80
2022-08-04T18:39:12.576Z,1.90
2022-08-04T18:42:02.269Z,1.90
2022-08-04T18:44:32.607Z,2.40
2022-08-04T18:47:23.345Z,2.50
2022-08-04T18:51:01.774Z,2.60
2022-08-04T18:55:55.874Z,2.40
2022-08-04T18:58:27.574Z,2.20
2022-08-04T19:01:00.517Z,1.60
2022-08-04T19:08:01.702Z,1.60
2022-08-04T19:11:54.101Z,1.90
2022-08-04T19:15:19.010Z,2.30
2022-08-04T19:18:53.367Z,2.00
2022-08-04T19:22:35.694Z,2.40
2022-08-04T19:26:03.949Z,2.10
2022-08-04T19:29:15.440Z,1.60
2022-08-04T19:32:24.251Z,1.50
2022-08-04T19:35:50.491Z,1.50
2022-08-04T19:38:39.620Z,1.40
2022-08-04T19:41:29.554Z,1.20
2022-08-04T19:44:48.006Z,1.10
2022-08-04T19:48:21.523Z,1.50
2022-08-04T19:51:27.906Z,1.40
2022-08-04T19:54:23.843Z,1.10
2022-08-04T19:57:38.045Z,1.30
2022-08-04T20:03:04.211Z,1.30
2022-08-04T20:06:06.819Z,1.80
2022-08-04T20:09:27.116Z,1.40
2022-08-04T20:12:42.126Z,1.80
2022-08-04T20:16:29.725Z,2.00
2022-08-04T20:19:17.531Z,1.50
2022-08-04T20:22:50.506Z,1.80
2022-08-04T20:29:01.816Z,2.30
2022-08-04T20:31:55.686Z,2.70
2022-08-04T20:35:17.119Z,2.70
2022-08-04T20:38:33.167Z,2.40
2022-08-04T20:42:02.378Z,2.40
2022-08-04T20:44:54.171Z,2.30
2022-08-04T20:47:57.355Z,1.90
2022-08-04T20:50:50.515Z,1.90
2022-08-04T20:54:03.451Z,2.10
2022-08-04T20:57:48.772Z,1.60
2022-08-04T21:00:58.515Z,2.10
2022-08-04T21:04:07.376Z,2.60
2022-08-04T21:07:36.530Z,2.20
2022-08-04T21:11:15.359Z,2.20
2022-08-04T21:14:34.554Z,2.10
2022-08-04T21:18:07.164Z,1.60
2022-08-04T21:21:25.236Z,2.20
2022-08-04T21:24:48.628Z,2.20
2022-08-04T21:28:04.295Z,2.40
2022-08-04T21:31:36.853Z,2.30
2022-08-04T21:34:40.120Z,2.40
2022-08-04T21:38:02.650Z,2.40
2022-08-04T21:41:11.789Z,2.60
2022-08-04T21:44:11.811Z,2.20
2022-08-04T21:50:50.364Z,2.20
2022-08-04T21:54:19.465Z,2.20
2022-08-04T21:57:49.528Z,2.00
2022-08-04T22:00:58.182Z,1.70
2022-08-04T22:04:06.028Z,1.90
2022-08-04T22:07:18.393Z,2.10
2022-08-04T22:10:44.429Z,2.80
2022-08-04T22:14:10.771Z,2.00
2022-08-04T22:20:28.419Z,2.30
2022-08-04T22:23:19.288Z,2.00
2022-08-04T22:26:53.815Z,2.50
2022-08-04T22:29:59.462Z,2.40
2022-08-04T22:33:16.660Z,2.40
2022-08-04T22:36:34.115Z,2.80
2022-08-04T22:40:02.578Z,2.30
2022-08-04T22:43:31.251Z,2.20
2022-08-04T22:46:56.474Z,2.50
2022-08-04T22:50:44.833Z,2.50
2022-08-04T22:54:12.346Z,2.70
2022-08-04T23:01:18.548Z,2.90
2022-08-04T23:04:49.950Z,2.20
2022-08-04T23:08:43.227Z,2.50
2022-08-04T23:12:24.414Z,2.50
2022-08-04T23:15:44.699Z,2.40
2022-08-04T23:19:09.552Z,2.40
2022-08-04T23:22:41.965Z,2.40
2022-08-04T23:26:10.951Z,2.20
2022-08-04T23:29:52.530Z,2.30
2022-08-04T23:33:51.538Z,2.20
2022-08-04T23:37:01.978Z,2.50
2022-08-04T23:40:29.986Z,2.50
2022-08-04T23:43:55.126Z,2.40
2022-08-04T23:48:15.494Z,2.30
2022-08-04T23:51:33.365Z,2.50
2022-08-04T23:55:19.103Z,2.50
2022-08-04T23:58:49.172Z,2.60
